sensor_id;sensor_type;location;lat;lon;timestamp;P1;durP1;ratioP1;P2;durP2;ratioP2
36497;SDS011;22513;51.222;6.480;2022-08-19T00:01:26;25.23;;;20.50;;
36497;SDS011;22513;51.222;6.480;2022-08-19T00:03:54;25.67;;;18.90;;
36497;SDS011;22513;51.222;6.480;2022-08-19T00:06:20;24.55;;;20.83;;
36497;SDS011;22513;51.222;6.480;2022-08-19T00:08:46;23.23;;;20.80;;
36497;SDS011;22513;51.222;6.480;2022-08-19T00:11:12;27.33;;;21.77;;
36497;SDS011;22513;51.222;6.480;2022-08-19T00:13:38;25.60;;;21.75;;
36497;SDS011;22513;51.222;6.480;2022-08-19T00:16:04;24.10;;;21.33;;
36497;SDS011;22513;51.222;6.480;2022-08-19T00:18:31;27.65;;;22.83;;
36497;SDS011;22513;51.222;6.480;2022-08-19T00:20:57;27.45;;;21.80;;
36497;SDS011;22513;51.222;6.480;2022-08-19T00:23:24;25.92;;;21.88;;
36497;SDS011;22513;51.222;6.480;2022-08-19T00:25:50;24.83;;;22.20;;
36497;SDS011;22513;51.222;6.480;2022-08-19T00:28:17;28.70;;;22.45;;
36497;SDS011;22513;51.222;6.480;2022-08-19T00:30:43;25.73;;;21.83;;
36497;SDS011;22513;51.222;6.480;2022-08-19T00:33:08;26.70;;;20.60;;
36497;SDS011;22513;51.222;6.480;2022-08-19T00:35:34;33.53;;;25.77;;
36497;SDS011;22513;51.222;6.480;2022-08-19T00:38:00;25.80;;;22.45;;
36497;SDS011;22513;51.222;6.480;2022-08-19T00:40:26;26.02;;;22.25;;
36497;SDS011;22513;51.222;6.480;2022-08-19T00:42:51;28.20;;;22.65;;
36497;SDS011;22513;51.222;6.480;2022-08-19T00:45:21;24.88;;;21.27;;
36497;SDS011;22513;51.222;6.480;2022-08-19T00:47:48;24.33;;;21.60;;
36497;SDS011;22513;51.222;6.480;2022-08-19T00:50:15;24.25;;;20.27;;
36497;SDS011;22513;51.222;6.480;2022-08-19T00:52:44;24.60;;;20.80;;
36497;SDS011;22513;51.222;6.480;2022-08-19T00:55:23;25.77;;;21.58;;
36497;SDS011;22513;51.222;6.480;2022-08-19T00:58:00;25.97;;;20.30;;
36497;SDS011;22513;51.222;6.480;2022-08-19T01:00:29;24.33;;;20.05;;
36497;SDS011;22513;51.222;6.480;2022-08-19T01:02:55;23.67;;;19.52;;
36497;SDS011;22513;51.222;6.480;2022-08-19T01:05:25;24.30;;;20.58;;
36497;SDS011;22513;51.222;6.480;2022-08-19T01:07:53;25.73;;;21.58;;
36497;SDS011;22513;51.222;6.480;2022-08-19T01:10:23;23.38;;;19.70;;
36497;SDS011;22513;51.222;6.480;2022-08-19T01:12:51;26.50;;;20.17;;
36497;SDS011;22513;51.222;6.480;2022-08-19T01:15:18;23.17;;;19.50;;
36497;SDS011;22513;51.222;6.480;2022-08-19T01:17:47;26.85;;;21.73;;
36497;SDS011;22513;51.222;6.480;2022-08-19T01:20:15;25.83;;;20.90;;
36497;SDS011;22513;51.222;6.480;2022-08-19T01:22:45;31.42;;;23.48;;
36497;SDS011;22513;51.222;6.480;2022-08-19T01:25:17;24.52;;;21.63;;
36497;SDS011;22513;51.222;6.480;2022-08-19T01:27:47;25.85;;;21.88;;
36497;SDS011;22513;51.222;6.480;2022-08-19T01:30:19;24.48;;;21.85;;
36497;SDS011;22513;51.222;6.480;2022-08-19T01:32:49;28.10;;;21.65;;
36497;SDS011;22513;51.222;6.480;2022-08-19T01:35:16;25.58;;;21.50;;
36497;SDS011;22513;51.222;6.480;2022-08-19T01:37:49;29.13;;;23.40;;
36497;SDS011;22513;51.222;6.480;2022-08-19T01:40:18;23.80;;;21.20;;
36497;SDS011;22513;51.222;6.480;2022-08-19T01:42:46;28.80;;;20.70;;
36497;SDS011;22513;51.222;6.480;2022-08-19T01:45:12;27.33;;;22.77;;
36497;SDS011;22513;51.222;6.480;2022-08-19T01:47:39;30.98;;;22.60;;
36497;SDS011;22513;51.222;6.480;2022-08-19T01:50:06;28.70;;;21.73;;
36497;SDS011;22513;51.222;6.480;2022-08-19T01:52:35;28.48;;;23.48;;
36497;SDS011;22513;51.222;6.480;2022-08-19T01:55:02;28.27;;;23.30;;
36497;SDS011;22513;51.222;6.480;2022-08-19T01:57:29;31.30;;;24.67;;
36497;SDS011;22513;51.222;6.480;2022-08-19T01:59:54;32.22;;;24.50;;
36497;SDS011;22513;51.222;6.480;2022-08-19T02:02:21;36.13;;;29.63;;
36497;SDS011;22513;51.222;6.480;2022-08-19T02:04:47;43.58;;;30.52;;
36497;SDS011;22513;51.222;6.480;2022-08-19T02:07:13;45.72;;;31.92;;
36497;SDS011;22513;51.222;6.480;2022-08-19T02:09:38;47.25;;;33.92;;
36497;SDS011;22513;51.222;6.480;2022-08-19T02:12:05;50.28;;;34.55;;
36497;SDS011;22513;51.222;6.480;2022-08-19T02:14:33;43.53;;;35.15;;
36497;SDS011;22513;51.222;6.480;2022-08-19T02:16:59;51.47;;;36.50;;
36497;SDS011;22513;51.222;6.480;2022-08-19T02:19:26;49.10;;;36.50;;
36497;SDS011;22513;51.222;6.480;2022-08-19T02:21:52;54.75;;;39.35;;
36497;SDS011;22513;51.222;6.480;2022-08-19T02:24:17;49.83;;;36.63;;
36497;SDS011;22513;51.222;6.480;2022-08-19T02:26:43;46.10;;;35.88;;
36497;SDS011;22513;51.222;6.480;2022-08-19T02:29:08;49.15;;;37.97;;
36497;SDS011;22513;51.222;6.480;2022-08-19T02:31:34;51.60;;;39.70;;
36497;SDS011;22513;51.222;6.480;2022-08-19T02:34:00;65.57;;;43.72;;
36497;SDS011;22513;51.222;6.480;2022-08-19T02:36:25;64.32;;;44.67;;
36497;SDS011;22513;51.222;6.480;2022-08-19T02:38:52;63.00;;;44.97;;
36497;SDS011;22513;51.222;6.480;2022-08-19T02:41:19;63.80;;;45.95;;
36497;SDS011;22513;51.222;6.480;2022-08-19T02:43:57;70.85;;;46.80;;
36497;SDS011;22513;51.222;6.480;2022-08-19T02:46:26;70.15;;;48.28;;
36497;SDS011;22513;51.222;6.480;2022-08-19T02:48:55;65.22;;;46.88;;
36497;SDS011;22513;51.222;6.480;2022-08-19T02:51:24;66.78;;;46.45;;
36497;SDS011;22513;51.222;6.480;2022-08-19T02:53:52;73.00;;;49.33;;
36497;SDS011;22513;51.222;6.480;2022-08-19T02:56:18;74.75;;;51.13;;
36497;SDS011;22513;51.222;6.480;2022-08-19T02:58:44;84.55;;;53.75;;
36497;SDS011;22513;51.222;6.480;2022-08-19T03:01:11;78.45;;;53.53;;
36497;SDS011;22513;51.222;6.480;2022-08-19T03:03:44;79.18;;;52.15;;
36497;SDS011;22513;51.222;6.480;2022-08-19T03:06:11;82.63;;;52.60;;
36497;SDS011;22513;51.222;6.480;2022-08-19T03:08:39;94.47;;;52.33;;
36497;SDS011;22513;51.222;6.480;2022-08-19T03:11:12;84.30;;;54.38;;
36497;SDS011;22513;51.222;6.480;2022-08-19T03:13:42;86.75;;;55.22;;
36497;SDS011;22513;51.222;6.480;2022-08-19T03:16:08;90.05;;;56.58;;
36497;SDS011;22513;51.222;6.480;2022-08-19T03:18:34;93.07;;;57.70;;
36497;SDS011;22513;51.222;6.480;2022-08-19T03:21:00;96.05;;;57.85;;
36497;SDS011;22513;51.222;6.480;2022-08-19T03:23:26;100.97;;;60.38;;
36497;SDS011;22513;51.222;6.480;2022-08-19T03:25:52;104.15;;;63.85;;
36497;SDS011;22513;51.222;6.480;2022-08-19T03:28:19;102.13;;;63.60;;
36497;SDS011;22513;51.222;6.480;2022-08-19T03:30:54;100.63;;;62.67;;
36497;SDS011;22513;51.222;6.480;2022-08-19T03:33:26;104.90;;;63.42;;
36497;SDS011;22513;51.222;6.480;2022-08-19T03:36:09;111.40;;;64.10;;
36497;SDS011;22513;51.222;6.480;2022-08-19T03:38:43;107.28;;;62.13;;
36497;SDS011;22513;51.222;6.480;2022-08-19T03:41:13;111.88;;;63.60;;
36497;SDS011;22513;51.222;6.480;2022-08-19T03:43:41;110.75;;;65.72;;
36497;SDS011;22513;51.222;6.480;2022-08-19T03:46:08;116.90;;;66.82;;
36497;SDS011;22513;51.222;6.480;2022-08-19T03:48:36;116.80;;;66.07;;
36497;SDS011;22513;51.222;6.480;2022-08-19T03:51:04;115.95;;;68.65;;
36497;SDS011;22513;51.222;6.480;2022-08-19T03:53:32;120.47;;;67.18;;
36497;SDS011;22513;51.222;6.480;2022-08-19T03:55:59;130.52;;;69.47;;
36497;SDS011;22513;51.222;6.480;2022-08-19T03:58:26;130.23;;;74.15;;
36497;SDS011;22513;51.222;6.480;2022-08-19T04:00:54;136.00;;;73.60;;
36497;SDS011;22513;51.222;6.480;2022-08-19T04:03:21;138.40;;;72.38;;
36497;SDS011;22513;51.222;6.480;2022-08-19T04:05:48;136.00;;;71.63;;
36497;SDS011;22513;51.222;6.480;2022-08-19T04:08:14;132.10;;;70.53;;
36497;SDS011;22513;51.222;6.480;2022-08-19T04:10:45;133.40;;;72.05;;
36497;SDS011;22513;51.222;6.480;2022-08-19T04:13:11;142.48;;;75.55;;
36497;SDS011;22513;51.222;6.480;2022-08-19T04:15:41;129.60;;;68.93;;
36497;SDS011;22513;51.222;6.480;2022-08-19T04:18:09;124.28;;;68.88;;
36497;SDS011;22513;51.222;6.480;2022-08-19T04:23:05;126.05;;;65.47;;
36497;SDS011;22513;51.222;6.480;2022-08-19T04:25:34;123.38;;;64.57;;
36497;SDS011;22513;51.222;6.480;2022-08-19T04:28:04;123.70;;;63.65;;
36497;SDS011;22513;51.222;6.480;2022-08-19T04:30:30;121.07;;;67.43;;
36497;SDS011;22513;51.222;6.480;2022-08-19T04:33:01;113.63;;;63.58;;
36497;SDS011;22513;51.222;6.480;2022-08-19T04:35:33;120.20;;;65.38;;
36497;SDS011;22513;51.222;6.480;2022-08-19T04:38:04;115.85;;;61.95;;
36497;SDS011;22513;51.222;6.480;2022-08-19T04:40:30;130.27;;;67.55;;
36497;SDS011;22513;51.222;6.480;2022-08-19T04:43:26;114.82;;;60.80;;
36497;SDS011;22513;51.222;6.480;2022-08-19T04:45:52;112.55;;;61.53;;
36497;SDS011;22513;51.222;6.480;2022-08-19T04:48:18;117.97;;;63.10;;
36497;SDS011;22513;51.222;6.480;2022-08-19T04:50:50;116.13;;;64.43;;
36497;SDS011;22513;51.222;6.480;2022-08-19T04:53:31;114.97;;;64.47;;
36497;SDS011;22513;51.222;6.480;2022-08-19T04:55:58;105.38;;;61.28;;
36497;SDS011;22513;51.222;6.480;2022-08-19T04:58:26;99.32;;;57.72;;
36497;SDS011;22513;51.222;6.480;2022-08-19T05:00:52;103.45;;;59.35;;
36497;SDS011;22513;51.222;6.480;2022-08-19T05:03:19;97.45;;;55.55;;
36497;SDS011;22513;51.222;6.480;2022-08-19T05:05:46;86.10;;;51.53;;
36497;SDS011;22513;51.222;6.480;2022-08-19T05:08:16;89.55;;;54.05;;
36497;SDS011;22513;51.222;6.480;2022-08-19T05:10:46;80.13;;;47.55;;
36497;SDS011;22513;51.222;6.480;2022-08-19T05:13:13;74.63;;;46.97;;
36497;SDS011;22513;51.222;6.480;2022-08-19T05:15:39;68.13;;;44.60;;
36497;SDS011;22513;51.222;6.480;2022-08-19T05:18:06;67.20;;;42.70;;
36497;SDS011;22513;51.222;6.480;2022-08-19T05:20:50;60.95;;;41.53;;
36497;SDS011;22513;51.222;6.480;2022-08-19T05:23:34;51.70;;;35.53;;
36497;SDS011;22513;51.222;6.480;2022-08-19T05:26:00;52.05;;;36.10;;
36497;SDS011;22513;51.222;6.480;2022-08-19T05:28:26;41.95;;;31.73;;
36497;SDS011;22513;51.222;6.480;2022-08-19T05:30:55;43.83;;;31.95;;
36497;SDS011;22513;51.222;6.480;2022-08-19T05:33:21;36.78;;;28.83;;
36497;SDS011;22513;51.222;6.480;2022-08-19T05:35:49;39.22;;;27.67;;
36497;SDS011;22513;51.222;6.480;2022-08-19T05:38:15;37.47;;;28.20;;
36497;SDS011;22513;51.222;6.480;2022-08-19T05:40:42;34.45;;;26.05;;
36497;SDS011;22513;51.222;6.480;2022-08-19T05:43:12;33.20;;;24.95;;
36497;SDS011;22513;51.222;6.480;2022-08-19T05:45:40;32.05;;;25.95;;
36497;SDS011;22513;51.222;6.480;2022-08-19T05:48:07;31.67;;;25.75;;
36497;SDS011;22513;51.222;6.480;2022-08-19T05:50:36;30.23;;;23.17;;
36497;SDS011;22513;51.222;6.480;2022-08-19T05:53:02;30.63;;;23.27;;
36497;SDS011;22513;51.222;6.480;2022-08-19T05:55:29;31.35;;;24.00;;
36497;SDS011;22513;51.222;6.480;2022-08-19T05:57:54;28.63;;;22.67;;
36497;SDS011;22513;51.222;6.480;2022-08-19T06:00:20;24.38;;;21.33;;
36497;SDS011;22513;51.222;6.480;2022-08-19T06:02:46;28.58;;;22.10;;
36497;SDS011;22513;51.222;6.480;2022-08-19T06:05:11;30.38;;;22.73;;
36497;SDS011;22513;51.222;6.480;2022-08-19T06:07:38;24.77;;;21.95;;
36497;SDS011;22513;51.222;6.480;2022-08-19T06:10:05;27.35;;;21.05;;
36497;SDS011;22513;51.222;6.480;2022-08-19T06:12:34;22.40;;;19.98;;
36497;SDS011;22513;51.222;6.480;2022-08-19T06:15:01;25.65;;;21.30;;
36497;SDS011;22513;51.222;6.480;2022-08-19T06:17:29;24.05;;;21.27;;
36497;SDS011;22513;51.222;6.480;2022-08-19T06:19:55;24.98;;;21.45;;
36497;SDS011;22513;51.222;6.480;2022-08-19T06:22:21;24.20;;;20.23;;
36497;SDS011;22513;51.222;6.480;2022-08-19T06:24:47;21.48;;;19.17;;
36497;SDS011;22513;51.222;6.480;2022-08-19T06:27:12;25.13;;;20.52;;
36497;SDS011;22513;51.222;6.480;2022-08-19T06:29:38;21.98;;;19.42;;
36497;SDS011;22513;51.222;6.480;2022-08-19T06:32:04;21.83;;;19.35;;
36497;SDS011;22513;51.222;6.480;2022-08-19T06:34:31;28.15;;;22.60;;
36497;SDS011;22513;51.222;6.480;2022-08-19T06:36:59;31.70;;;25.52;;
36497;SDS011;22513;51.222;6.480;2022-08-19T06:39:27;30.08;;;26.10;;
36497;SDS011;22513;51.222;6.480;2022-08-19T06:41:59;31.83;;;26.52;;
36497;SDS011;22513;51.222;6.480;2022-08-19T06:44:26;37.85;;;29.08;;
36497;SDS011;22513;51.222;6.480;2022-08-19T06:46:54;39.80;;;30.15;;
36497;SDS011;22513;51.222;6.480;2022-08-19T06:49:21;32.08;;;28.52;;
36497;SDS011;22513;51.222;6.480;2022-08-19T06:51:48;35.90;;;30.10;;
36497;SDS011;22513;51.222;6.480;2022-08-19T06:54:14;36.58;;;29.88;;
36497;SDS011;22513;51.222;6.480;2022-08-19T06:56:41;35.17;;;30.75;;
36497;SDS011;22513;51.222;6.480;2022-08-19T06:59:12;35.33;;;30.35;;
36497;SDS011;22513;51.222;6.480;2022-08-19T07:01:41;36.40;;;30.70;;
36497;SDS011;22513;51.222;6.480;2022-08-19T07:04:12;37.22;;;31.00;;
36497;SDS011;22513;51.222;6.480;2022-08-19T07:06:40;41.25;;;31.80;;
36497;SDS011;22513;51.222;6.480;2022-08-19T07:09:08;38.25;;;28.75;;
36497;SDS011;22513;51.222;6.480;2022-08-19T07:11:34;39.45;;;33.42;;
36497;SDS011;22513;51.222;6.480;2022-08-19T07:14:00;40.33;;;32.05;;
36497;SDS011;22513;51.222;6.480;2022-08-19T07:16:27;44.00;;;32.92;;
36497;SDS011;22513;51.222;6.480;2022-08-19T07:18:53;37.15;;;28.85;;
36497;SDS011;22513;51.222;6.480;2022-08-19T07:21:22;45.38;;;34.78;;
36497;SDS011;22513;51.222;6.480;2022-08-19T07:23:49;45.17;;;34.90;;
36497;SDS011;22513;51.222;6.480;2022-08-19T07:26:18;45.13;;;33.97;;
36497;SDS011;22513;51.222;6.480;2022-08-19T07:28:46;43.00;;;34.28;;
36497;SDS011;22513;51.222;6.480;2022-08-19T07:31:14;49.15;;;34.95;;
36497;SDS011;22513;51.222;6.480;2022-08-19T07:33:48;46.05;;;36.03;;
36497;SDS011;22513;51.222;6.480;2022-08-19T07:36:16;46.75;;;34.10;;
36497;SDS011;22513;51.222;6.480;2022-08-19T07:41:13;46.60;;;32.10;;
36497;SDS011;22513;51.222;6.480;2022-08-19T07:43:41;45.23;;;33.43;;
36497;SDS011;22513;51.222;6.480;2022-08-19T07:46:09;42.55;;;31.15;;
36497;SDS011;22513;51.222;6.480;2022-08-19T07:48:35;40.33;;;29.83;;
36497;SDS011;22513;51.222;6.480;2022-08-19T07:51:03;42.63;;;30.45;;
36497;SDS011;22513;51.222;6.480;2022-08-19T07:53:31;42.80;;;32.58;;
36497;SDS011;22513;51.222;6.480;2022-08-19T07:55:57;39.83;;;29.45;;
36497;SDS011;22513;51.222;6.480;2022-08-19T07:58:27;38.78;;;28.92;;
36497;SDS011;22513;51.222;6.480;2022-08-19T08:00:53;37.38;;;27.77;;
36497;SDS011;22513;51.222;6.480;2022-08-19T08:03:20;38.78;;;29.75;;
36497;SDS011;22513;51.222;6.480;2022-08-19T08:06:07;35.42;;;27.48;;
36497;SDS011;22513;51.222;6.480;2022-08-19T08:08:51;39.03;;;27.70;;
36497;SDS011;22513;51.222;6.480;2022-08-19T08:11:36;37.78;;;27.48;;
36497;SDS011;22513;51.222;6.480;2022-08-19T08:14:03;35.13;;;27.17;;
36497;SDS011;22513;51.222;6.480;2022-08-19T08:16:30;30.58;;;25.27;;
36497;SDS011;22513;51.222;6.480;2022-08-19T08:19:00;33.83;;;24.30;;
36497;SDS011;22513;51.222;6.480;2022-08-19T08:21:25;32.92;;;25.33;;
36497;SDS011;22513;51.222;6.480;2022-08-19T08:23:51;29.08;;;22.15;;
36497;SDS011;22513;51.222;6.480;2022-08-19T08:26:18;26.33;;;20.77;;
36497;SDS011;22513;51.222;6.480;2022-08-19T08:28:43;25.77;;;20.05;;
36497;SDS011;22513;51.222;6.480;2022-08-19T08:31:09;23.63;;;19.33;;
36497;SDS011;22513;51.222;6.480;2022-08-19T08:33:35;24.80;;;20.10;;
36497;SDS011;22513;51.222;6.480;2022-08-19T08:36:02;24.98;;;19.67;;
36497;SDS011;22513;51.222;6.480;2022-08-19T08:38:31;25.30;;;18.70;;
36497;SDS011;22513;51.222;6.480;2022-08-19T08:40:59;19.98;;;16.80;;
36497;SDS011;22513;51.222;6.480;2022-08-19T08:43:38;20.52;;;17.63;;
36497;SDS011;22513;51.222;6.480;2022-08-19T08:46:10;20.30;;;17.17;;
36497;SDS011;22513;51.222;6.480;2022-08-19T08:49:02;23.58;;;17.55;;
36497;SDS011;22513;51.222;6.480;2022-08-19T08:51:38;25.67;;;19.73;;
36497;SDS011;22513;51.222;6.480;2022-08-19T08:54:13;24.33;;;18.33;;
36497;SDS011;22513;51.222;6.480;2022-08-19T08:56:44;19.98;;;17.05;;
36497;SDS011;22513;51.222;6.480;2022-08-19T08:59:26;21.27;;;16.85;;
36497;SDS011;22513;51.222;6.480;2022-08-19T09:01:57;21.88;;;16.77;;
36497;SDS011;22513;51.222;6.480;2022-08-19T09:04:23;21.38;;;16.83;;
36497;SDS011;22513;51.222;6.480;2022-08-19T09:09:38;17.30;;;14.27;;
36497;SDS011;22513;51.222;6.480;2022-08-19T09:12:16;20.25;;;14.77;;
36497;SDS011;22513;51.222;6.480;2022-08-19T09:14:51;17.90;;;14.55;;
36497;SDS011;22513;51.222;6.480;2022-08-19T09:17:25;16.73;;;11.48;;
36497;SDS011;22513;51.222;6.480;2022-08-19T09:20:05;16.90;;;12.98;;
36497;SDS011;22513;51.222;6.480;2022-08-19T09:22:37;17.38;;;13.18;;
36497;SDS011;22513;51.222;6.480;2022-08-19T09:25:05;16.75;;;12.75;;
36497;SDS011;22513;51.222;6.480;2022-08-19T09:27:33;15.90;;;11.18;;
36497;SDS011;22513;51.222;6.480;2022-08-19T09:30:02;14.27;;;10.77;;
36497;SDS011;22513;51.222;6.480;2022-08-19T09:32:29;13.13;;;10.13;;
36497;SDS011;22513;51.222;6.480;2022-08-19T09:34:55;14.23;;;10.40;;
36497;SDS011;22513;51.222;6.480;2022-08-19T09:37:23;17.05;;;10.73;;
36497;SDS011;22513;51.222;6.480;2022-08-19T09:39:49;15.25;;;11.90;;
36497;SDS011;22513;51.222;6.480;2022-08-19T09:42:15;12.55;;;10.38;;
36497;SDS011;22513;51.222;6.480;2022-08-19T09:44:41;14.77;;;10.02;;
36497;SDS011;22513;51.222;6.480;2022-08-19T09:47:08;10.07;;;8.20;;
36497;SDS011;22513;51.222;6.480;2022-08-19T09:49:36;11.13;;;8.25;;
36497;SDS011;22513;51.222;6.480;2022-08-19T09:52:02;10.32;;;7.95;;
36497;SDS011;22513;51.222;6.480;2022-08-19T09:54:28;9.25;;;7.45;;
36497;SDS011;22513;51.222;6.480;2022-08-19T09:56:54;9.00;;;7.68;;
36497;SDS011;22513;51.222;6.480;2022-08-19T09:59:20;12.80;;;8.45;;
36497;SDS011;22513;51.222;6.480;2022-08-19T10:01:46;10.18;;;8.40;;
36497;SDS011;22513;51.222;6.480;2022-08-19T10:04:11;10.93;;;8.15;;
36497;SDS011;22513;51.222;6.480;2022-08-19T10:06:38;11.75;;;8.65;;
36497;SDS011;22513;51.222;6.480;2022-08-19T10:09:05;13.38;;;9.93;;
36497;SDS011;22513;51.222;6.480;2022-08-19T10:11:32;11.27;;;10.00;;
36497;SDS011;22513;51.222;6.480;2022-08-19T10:14:00;13.23;;;8.60;;
36497;SDS011;22513;51.222;6.480;2022-08-19T10:16:27;16.23;;;10.38;;
36497;SDS011;22513;51.222;6.480;2022-08-19T10:18:53;12.73;;;10.48;;
36497;SDS011;22513;51.222;6.480;2022-08-19T10:21:22;16.05;;;9.90;;
36497;SDS011;22513;51.222;6.480;2022-08-19T10:23:50;14.82;;;10.63;;
36497;SDS011;22513;51.222;6.480;2022-08-19T10:26:21;13.75;;;10.05;;
36497;SDS011;22513;51.222;6.480;2022-08-19T10:28:49;13.82;;;9.82;;
36497;SDS011;22513;51.222;6.480;2022-08-19T10:31:19;14.57;;;11.10;;
36497;SDS011;22513;51.222;6.480;2022-08-19T10:33:48;14.40;;;10.85;;
36497;SDS011;22513;51.222;6.480;2022-08-19T10:36:17;14.90;;;10.95;;
36497;SDS011;22513;51.222;6.480;2022-08-19T10:38:45;14.57;;;11.93;;
36497;SDS011;22513;51.222;6.480;2022-08-19T10:41:15;14.50;;;9.57;;
36497;SDS011;22513;51.222;6.480;2022-08-19T10:43:43;13.77;;;11.30;;
36497;SDS011;22513;51.222;6.480;2022-08-19T10:46:12;16.33;;;11.00;;
36497;SDS011;22513;51.222;6.480;2022-08-19T10:48:39;13.48;;;10.57;;
36497;SDS011;22513;51.222;6.480;2022-08-19T10:51:05;12.90;;;11.32;;
36497;SDS011;22513;51.222;6.480;2022-08-19T10:53:50;14.43;;;11.63;;
36497;SDS011;22513;51.222;6.480;2022-08-19T10:56:17;14.65;;;11.05;;
36497;SDS011;22513;51.222;6.480;2022-08-19T10:59:01;12.60;;;10.82;;
36497;SDS011;22513;51.222;6.480;2022-08-19T11:01:28;14.50;;;10.98;;
36497;SDS011;22513;51.222;6.480;2022-08-19T11:03:56;14.77;;;11.07;;
36497;SDS011;22513;51.222;6.480;2022-08-19T11:06:22;17.88;;;10.95;;
36497;SDS011;22513;51.222;6.480;2022-08-19T11:08:53;15.00;;;10.18;;
36497;SDS011;22513;51.222;6.480;2022-08-19T11:11:19;13.27;;;10.30;;
36497;SDS011;22513;51.222;6.480;2022-08-19T11:13:46;14.02;;;10.63;;
36497;SDS011;22513;51.222;6.480;2022-08-19T11:16:13;10.88;;;8.52;;
36497;SDS011;22513;51.222;6.480;2022-08-19T11:18:42;17.40;;;9.15;;
36497;SDS011;22513;51.222;6.480;2022-08-19T11:21:14;7.75;;;6.85;;
36497;SDS011;22513;51.222;6.480;2022-08-19T11:23:52;11.80;;;7.47;;
36497;SDS011;22513;51.222;6.480;2022-08-19T11:26:20;7.75;;;6.32;;
36497;SDS011;22513;51.222;6.480;2022-08-19T11:28:48;8.20;;;7.20;;
36497;SDS011;22513;51.222;6.480;2022-08-19T11:31:18;10.50;;;8.30;;
36497;SDS011;22513;51.222;6.480;2022-08-19T11:33:46;10.73;;;8.27;;
36497;SDS011;22513;51.222;6.480;2022-08-19T11:36:12;9.60;;;7.95;;
36497;SDS011;22513;51.222;6.480;2022-08-19T11:38:38;8.77;;;7.65;;
36497;SDS011;22513;51.222;6.480;2022-08-19T11:41:05;10.88;;;7.50;;
36497;SDS011;22513;51.222;6.480;2022-08-19T11:43:35;11.30;;;7.82;;
36497;SDS011;22513;51.222;6.480;2022-08-19T11:46:07;7.53;;;6.50;;
36497;SDS011;22513;51.222;6.480;2022-08-19T11:48:35;10.02;;;6.88;;
36497;SDS011;22513;51.222;6.480;2022-08-19T11:51:03;10.43;;;7.45;;
36497;SDS011;22513;51.222;6.480;2022-08-19T11:53:31;12.50;;;6.82;;
36497;SDS011;22513;51.222;6.480;2022-08-19T11:55:58;13.93;;;6.55;;
36497;SDS011;22513;51.222;6.480;2022-08-19T11:58:23;7.85;;;6.45;;
36497;SDS011;22513;51.222;6.480;2022-08-19T12:00:50;7.70;;;6.50;;
36497;SDS011;22513;51.222;6.480;2022-08-19T12:03:16;8.02;;;6.30;;
36497;SDS011;22513;51.222;6.480;2022-08-19T12:05:43;8.25;;;6.05;;
36497;SDS011;22513;51.222;6.480;2022-08-19T12:08:09;9.70;;;6.68;;
36497;SDS011;22513;51.222;6.480;2022-08-19T12:10:36;8.55;;;5.40;;
36497;SDS011;22513;51.222;6.480;2022-08-19T12:13:02;6.38;;;5.30;;
36497;SDS011;22513;51.222;6.480;2022-08-19T12:15:28;6.75;;;5.25;;
36497;SDS011;22513;51.222;6.480;2022-08-19T12:17:54;9.85;;;4.93;;
36497;SDS011;22513;51.222;6.480;2022-08-19T12:20:22;8.90;;;5.38;;
36497;SDS011;22513;51.222;6.480;2022-08-19T12:22:49;8.35;;;5.88;;
36497;SDS011;22513;51.222;6.480;2022-08-19T12:25:15;9.38;;;5.97;;
36497;SDS011;22513;51.222;6.480;2022-08-19T12:27:41;8.40;;;4.82;;
36497;SDS011;22513;51.222;6.480;2022-08-19T12:30:08;6.50;;;5.22;;
36497;SDS011;22513;51.222;6.480;2022-08-19T12:32:35;8.18;;;4.95;;
36497;SDS011;22513;51.222;6.480;2022-08-19T12:35:01;8.13;;;5.85;;
36497;SDS011;22513;51.222;6.480;2022-08-19T12:37:27;7.95;;;5.63;;
36497;SDS011;22513;51.222;6.480;2022-08-19T12:39:52;7.50;;;5.30;;
36497;SDS011;22513;51.222;6.480;2022-08-19T12:42:18;7.22;;;5.35;;
36497;SDS011;22513;51.222;6.480;2022-08-19T12:44:44;8.52;;;5.18;;
36497;SDS011;22513;51.222;6.480;2022-08-19T12:47:11;6.00;;;4.70;;
36497;SDS011;22513;51.222;6.480;2022-08-19T12:49:39;7.07;;;4.87;;
36497;SDS011;22513;51.222;6.480;2022-08-19T12:52:06;10.18;;;4.70;;
36497;SDS011;22513;51.222;6.480;2022-08-19T12:54:34;5.50;;;4.10;;
36497;SDS011;22513;51.222;6.480;2022-08-19T12:57:00;5.53;;;3.92;;
36497;SDS011;22513;51.222;6.480;2022-08-19T12:59:30;8.10;;;3.95;;
36497;SDS011;22513;51.222;6.480;2022-08-19T13:01:56;6.15;;;3.60;;
36497;SDS011;22513;51.222;6.480;2022-08-19T13:04:22;4.13;;;3.63;;
36497;SDS011;22513;51.222;6.480;2022-08-19T13:06:48;7.07;;;3.20;;
36497;SDS011;22513;51.222;6.480;2022-08-19T13:09:14;5.47;;;3.20;;
36497;SDS011;22513;51.222;6.480;2022-08-19T13:11:40;5.85;;;3.60;;
36497;SDS011;22513;51.222;6.480;2022-08-19T13:14:05;6.05;;;3.55;;
36497;SDS011;22513;51.222;6.480;2022-08-19T13:16:31;5.03;;;3.13;;
36497;SDS011;22513;51.222;6.480;2022-08-19T13:18:57;4.57;;;3.00;;
36497;SDS011;22513;51.222;6.480;2022-08-19T13:21:25;7.45;;;3.42;;
36497;SDS011;22513;51.222;6.480;2022-08-19T13:26:19;8.18;;;3.38;;
36497;SDS011;22513;51.222;6.480;2022-08-19T13:28:45;8.68;;;3.15;;
36497;SDS011;22513;51.222;6.480;2022-08-19T13:31:31;5.85;;;2.72;;
36497;SDS011;22513;51.222;6.480;2022-08-19T13:34:18;3.50;;;2.90;;
36497;SDS011;22513;51.222;6.480;2022-08-19T13:36:51;4.40;;;3.05;;
36497;SDS011;22513;51.222;6.480;2022-08-19T13:39:17;6.22;;;4.00;;
36497;SDS011;22513;51.222;6.480;2022-08-19T13:41:44;3.65;;;2.85;;
36497;SDS011;22513;51.222;6.480;2022-08-19T13:46:39;4.75;;;3.20;;
36497;SDS011;22513;51.222;6.480;2022-08-19T13:49:05;5.30;;;3.13;;
36497;SDS011;22513;51.222;6.480;2022-08-19T13:51:31;7.78;;;2.95;;
36497;SDS011;22513;51.222;6.480;2022-08-19T13:53:56;4.30;;;2.65;;
36497;SDS011;22513;51.222;6.480;2022-08-19T13:56:22;8.35;;;2.95;;
36497;SDS011;22513;51.222;6.480;2022-08-19T13:58:48;8.13;;;2.97;;
36497;SDS011;22513;51.222;6.480;2022-08-19T14:01:20;5.37;;;3.03;;
36497;SDS011;22513;51.222;6.480;2022-08-19T14:03:47;5.72;;;3.35;;
36497;SDS011;22513;51.222;6.480;2022-08-19T14:06:12;3.83;;;2.85;;
36497;SDS011;22513;51.222;6.480;2022-08-19T14:08:38;4.15;;;2.60;;
36497;SDS011;22513;51.222;6.480;2022-08-19T14:11:06;4.90;;;2.80;;
36497;SDS011;22513;51.222;6.480;2022-08-19T14:13:33;4.65;;;2.75;;
36497;SDS011;22513;51.222;6.480;2022-08-19T14:16:05;3.47;;;2.58;;
36497;SDS011;22513;51.222;6.480;2022-08-19T14:18:32;6.55;;;3.30;;
36497;SDS011;22513;51.222;6.480;2022-08-19T14:20:58;4.55;;;2.60;;
36497;SDS011;22513;51.222;6.480;2022-08-19T14:23:23;3.95;;;2.78;;
36497;SDS011;22513;51.222;6.480;2022-08-19T14:25:49;4.32;;;2.95;;
36497;SDS011;22513;51.222;6.480;2022-08-19T14:28:14;4.68;;;3.10;;
36497;SDS011;22513;51.222;6.480;2022-08-19T14:30:41;5.15;;;2.75;;
36497;SDS011;22513;51.222;6.480;2022-08-19T14:33:09;3.55;;;2.92;;
36497;SDS011;22513;51.222;6.480;2022-08-19T14:35:35;7.45;;;3.63;;
36497;SDS011;22513;51.222;6.480;2022-08-19T14:38:02;5.45;;;3.58;;
36497;SDS011;22513;51.222;6.480;2022-08-19T14:40:29;5.63;;;3.72;;
36497;SDS011;22513;51.222;6.480;2022-08-19T14:42:58;5.00;;;3.40;;
36497;SDS011;22513;51.222;6.480;2022-08-19T14:45:28;6.72;;;3.92;;